createdAt,value
2023-09-05T00:01:31.109Z,102178.41
2023-09-05T00:06:32.774Z,102176.75
2023-09-05T00:11:35.514Z,102182.97
2023-09-05T00:16:37.044Z,102186.09
2023-09-05T00:21:38.488Z,102174.22
2023-09-05T00:26:41.046Z,102175.53
2023-09-05T00:31:42.609Z,102181.59
2023-09-05T00:36:44.112Z,102183.38
2023-09-05T00:41:46.364Z,102176.03
2023-09-05T00:46:48.447Z,102183.69
2023-09-05T00:51:54.520Z,102175.91
2023-09-05T00:56:56.319Z,102165.84
2023-09-05T01:01:58.195Z,102164.66
2023-09-05T01:07:57.026Z,102152.03
2023-09-05T01:12:59.915Z,102140.63
2023-09-05T01:18:01.508Z,102137.47
2023-09-05T01:23:17.378Z,102136.81
2023-09-05T01:28:24.273Z,102124.53
2023-09-05T01:33:25.921Z,102126.63
2023-09-05T01:38:27.642Z,102123.50
2023-09-05T01:43:29.207Z,102115.59
2023-09-05T01:48:30.685Z,102105.59
2023-09-05T01:53:32.230Z,102097.47
2023-09-05T01:58:33.802Z,102088.16
2023-09-05T02:03:35.322Z,102081.78
2023-09-05T02:08:36.876Z,102071.97
2023-09-05T02:13:38.375Z,102061.78
2023-09-05T02:18:40.975Z,102062.63
2023-09-05T02:23:43.150Z,102061.56
2023-09-05T02:28:46.026Z,102066.53
2023-09-05T02:33:47.612Z,102071.19
2023-09-05T02:38:49.211Z,102076.63
2023-09-05T02:43:50.972Z,102071.97
2023-09-05T02:48:52.442Z,102059.38
2023-09-05T02:53:57.953Z,102055.44
2023-09-05T02:58:59.597Z,102060.69
2023-09-05T03:04:01.069Z,102063.94
2023-09-05T03:09:04.925Z,102052.69
2023-09-05T03:14:06.373Z,102056.31
2023-09-05T03:19:08.087Z,102064.22
2023-09-05T03:24:09.641Z,102053.84
2023-09-05T03:29:11.110Z,102052.59
2023-09-05T03:34:12.668Z,102057.75
2023-09-05T03:39:14.219Z,102050.97
2023-09-05T03:44:18.078Z,102046.00
2023-09-05T03:49:19.654Z,102044.00
2023-09-05T03:54:21.141Z,102051.44
2023-09-05T03:59:22.682Z,102047.25
2023-09-05T04:04:24.174Z,102039.28
2023-09-05T04:09:25.690Z,102035.66
2023-09-05T04:14:27.130Z,102032.03
2023-09-05T04:19:28.571Z,102027.00
2023-09-05T04:24:30.133Z,102028.25
2023-09-05T04:29:31.741Z,102024.97
2023-09-05T04:34:33.501Z,102020.31
2023-09-05T04:39:35.644Z,102013.09
2023-09-05T04:44:37.165Z,102022.41
2023-09-05T04:49:38.663Z,102023.94
2023-09-05T04:54:40.230Z,102017.34
2023-09-05T04:59:45.038Z,102019.75
2023-09-05T05:04:47.220Z,102006.16
2023-09-05T05:09:49.077Z,102006.16
2023-09-05T05:14:50.718Z,101999.09
2023-09-05T05:19:52.193Z,101990.03
2023-09-05T05:24:53.707Z,101983.66
2023-09-05T05:29:55.265Z,102003.47
2023-09-05T05:34:56.737Z,102002.25
2023-09-05T05:39:58.692Z,102016.50
2023-09-05T05:45:00.206Z,102015.66
2023-09-05T05:50:01.663Z,102017.25
2023-09-05T05:55:03.256Z,102016.03
2023-09-05T06:00:06.420Z,102020.13
2023-09-05T06:05:09.144Z,102014.03
2023-09-05T06:10:10.913Z,102008.44
2023-09-05T06:15:12.581Z,102008.38
2023-09-05T06:20:14.942Z,102011.53
2023-09-05T06:25:17.466Z,102019.75
2023-09-05T06:30:19.096Z,102022.31
2023-09-05T06:35:20.680Z,102023.78
2023-09-05T06:40:22.407Z,102036.66
2023-09-05T06:45:23.906Z,102028.13
2023-09-05T06:50:25.604Z,102024.59
2023-09-05T06:55:29.766Z,102026.19
2023-09-05T07:00:31.582Z,102023.47
2023-09-05T07:05:34.119Z,102036.50
2023-09-05T07:10:35.639Z,102038.63
2023-09-05T07:15:37.349Z,102031.31
2023-09-05T07:20:38.964Z,102021.06
2023-09-05T07:25:40.695Z,102025.44
2023-09-05T07:30:42.389Z,102028.50
2023-09-05T07:35:45.509Z,102038.47
2023-09-05T07:40:47.130Z,102050.88
2023-09-05T07:45:48.696Z,102042.81
2023-09-05T07:50:52.564Z,102035.75
2023-09-05T07:55:54.379Z,102027.28
2023-09-05T08:00:56.133Z,102029.25
2023-09-05T08:05:57.773Z,102012.03
2023-09-05T08:10:59.341Z,102023.34
2023-09-05T08:16:01.437Z,102019.06
2023-09-05T08:21:05.571Z,102020.13
2023-09-05T08:26:12.534Z,102036.59
2023-09-05T08:31:18.610Z,102017.41
2023-09-05T08:36:21.127Z,102015.94
2023-09-05T08:41:23.444Z,102030.50
2023-09-05T08:46:26.347Z,102021.31
2023-09-05T08:51:33.783Z,102013.81
2023-09-05T08:56:35.321Z,102017.41
2023-09-05T09:01:37.004Z,102012.03
2023-09-05T09:06:39.605Z,102004.69
2023-09-05T09:11:41.145Z,102006.06
2023-09-05T09:16:47.155Z,102003.16
2023-09-05T09:21:49.990Z,101999.22
2023-09-05T09:26:54.401Z,102003.38
2023-09-05T09:32:07.491Z,102003.16
2023-09-05T09:37:10.512Z,102000.31
2023-09-05T09:42:12.049Z,101994.75
2023-09-05T09:47:13.835Z,102006.47
2023-09-05T09:52:21.334Z,102007.03
2023-09-05T09:57:43.070Z,102020.28
2023-09-05T10:02:47.086Z,102021.66
2023-09-05T10:07:49.894Z,102029.94
2023-09-05T10:12:52.859Z,102021.97
2023-09-05T10:17:55.634Z,102015.28
2023-09-05T10:22:58.925Z,102012.25
2023-09-05T10:28:00.488Z,102008.84
2023-09-05T10:33:02.044Z,101999.59
2023-09-05T10:38:06.417Z,102004.38
2023-09-05T10:43:16.968Z,101995.69
2023-09-05T10:48:37.509Z,101988.94
2023-09-05T10:53:44.404Z,101981.13
2023-09-05T10:58:55.060Z,101986.47
2023-09-05T11:04:08.474Z,101987.69
2023-09-05T11:09:10.481Z,101981.00
2023-09-05T11:14:12.169Z,101985.91
2023-09-05T11:19:30.428Z,101973.56
2023-09-05T11:24:33.139Z,101969.63
2023-09-05T11:29:35.456Z,101964.16
2023-09-05T11:34:36.972Z,101956.41
2023-09-05T11:39:38.494Z,101953.47
2023-09-05T11:44:40.044Z,101954.31
2023-09-05T11:49:41.866Z,101964.41
2023-09-05T11:54:43.788Z,101963.69
2023-09-05T11:59:46.604Z,101955.91
2023-09-05T12:04:49.457Z,101944.97
2023-09-05T12:09:51.087Z,101936.75
2023-09-05T12:15:00.632Z,101929.56
2023-09-05T12:20:09.274Z,101917.78
2023-09-05T12:25:18.825Z,101906.41
2023-09-05T12:30:30.844Z,101896.22
2023-09-05T12:35:33.534Z,101906.69
2023-09-05T12:40:35.194Z,101903.13
2023-09-05T12:45:36.775Z,101899.44
2023-09-05T12:50:38.330Z,101893.16
2023-09-05T12:55:40.297Z,101885.19
2023-09-05T13:00:42.389Z,101890.28
2023-09-05T13:05:44.932Z,101882.06
2023-09-05T13:10:46.439Z,101887.06
2023-09-05T13:15:48.031Z,101880.78
2023-09-05T13:20:49.636Z,101874.69
2023-09-05T13:25:51.355Z,101892.81
2023-09-05T13:30:52.916Z,101884.09
2023-09-05T13:35:54.444Z,101895.63
2023-09-05T13:40:55.928Z,101895.94
2023-09-05T13:45:57.475Z,101877.81
2023-09-05T13:50:59.006Z,101892.16
2023-09-05T13:56:00.577Z,101875.00
2023-09-05T14:01:02.093Z,101880.03
2023-09-05T14:06:03.703Z,101873.25
2023-09-05T14:11:05.273Z,101868.59
2023-09-05T14:16:06.938Z,101865.66
2023-09-05T14:21:09.181Z,101863.78
2023-09-05T14:26:10.826Z,101852.75
2023-09-05T14:31:12.810Z,101853.94
2023-09-05T14:36:14.343Z,101846.88
2023-09-05T14:41:15.851Z,101838.72
2023-09-05T14:46:17.360Z,101836.34
2023-09-05T14:51:19.089Z,101825.63
2023-09-05T14:56:21.082Z,101840.69
2023-09-05T15:01:22.778Z,101834.44
2023-09-05T15:06:24.429Z,101823.22
2023-09-05T15:11:25.921Z,101822.56
2023-09-05T15:16:29.716Z,101833.72
2023-09-05T15:21:31.292Z,101835.41
2023-09-05T15:26:36.666Z,101827.34
2023-09-05T15:31:39.200Z,101814.00
2023-09-05T15:36:40.822Z,101812.06
2023-09-05T15:41:42.412Z,101806.44
2023-09-05T15:46:45.467Z,101809.25
2023-09-05T15:51:47.141Z,101810.59
2023-09-05T15:56:49.247Z,101799.94
2023-09-05T16:01:51.109Z,101797.13
2023-09-05T16:06:52.616Z,101795.41
2023-09-05T16:11:54.963Z,101786.06
2023-09-05T16:17:01.874Z,101792.72
2023-09-05T16:22:03.536Z,101796.44
2023-09-05T16:27:05.367Z,101791.88
2023-09-05T16:32:07.637Z,101785.06
2023-09-05T16:37:09.444Z,101788.06
2023-09-05T16:42:12.735Z,101793.97
2023-09-05T16:47:15.123Z,101782.53
2023-09-05T16:52:16.599Z,101785.84
2023-09-05T16:57:18.516Z,101791.09
2023-09-05T17:02:21.209Z,101795.53
2023-09-05T17:07:22.791Z,101789.94
2023-09-05T17:12:24.388Z,101784.75
2023-09-05T17:17:25.982Z,101782.44
2023-09-05T17:22:27.508Z,101785.13
2023-09-05T17:27:29.186Z,101787.75
2023-09-05T17:32:30.633Z,101791.59
2023-09-05T17:37:32.224Z,101792.34
2023-09-05T17:42:33.861Z,101800.03
2023-09-05T17:47:37.024Z,101808.03
2023-09-05T17:52:38.655Z,101806.97
2023-09-05T17:57:40.182Z,101810.75
2023-09-05T18:02:42.740Z,101811.41
2023-09-05T18:07:44.350Z,101814.25
2023-09-05T18:12:46.910Z,101815.63
2023-09-05T18:17:48.573Z,101819.78
2023-09-05T18:22:53.117Z,101823.44
2023-09-05T18:27:54.709Z,101828.19
2023-09-05T18:32:57.023Z,101824.06
2023-09-05T18:38:03.648Z,101828.47
2023-09-05T18:43:05.192Z,101836.06
2023-09-05T18:48:06.902Z,101836.94
2023-09-05T18:53:09.703Z,101845.06
2023-09-05T18:58:12.936Z,101850.13
2023-09-05T19:03:14.619Z,101846.03
2023-09-05T19:08:16.366Z,101845.25
2023-09-05T19:13:17.798Z,101849.06
2023-09-05T19:18:19.285Z,101843.84
2023-09-05T19:23:20.966Z,101840.31
2023-09-05T19:28:22.415Z,101844.28
2023-09-05T19:33:26.176Z,101848.66
2023-09-05T19:38:29.136Z,101850.19
2023-09-05T19:43:30.809Z,101852.59
2023-09-05T19:48:32.913Z,101851.00
2023-09-05T19:53:34.497Z,101865.44
2023-09-05T19:58:36.502Z,101863.44
2023-09-05T20:03:38.822Z,101857.47
2023-09-05T20:08:40.852Z,101854.34
2023-09-05T20:13:42.410Z,101858.28
2023-09-05T20:18:44.090Z,101860.72
2023-09-05T20:23:45.741Z,101859.97
2023-09-05T20:28:47.222Z,101860.53
2023-09-05T20:33:48.746Z,101872.53
2023-09-05T20:38:50.242Z,101872.09
2023-09-05T20:43:53.613Z,101883.25
2023-09-05T20:48:55.315Z,101870.34
2023-09-05T20:53:56.997Z,101871.22
2023-09-05T20:58:58.493Z,101874.03
2023-09-05T21:04:00.173Z,101877.47
2023-09-05T21:09:01.854Z,101881.13
2023-09-05T21:14:03.383Z,101891.38
2023-09-05T21:19:04.997Z,101882.19
2023-09-05T21:24:07.417Z,101876.84
2023-09-05T21:29:08.923Z,101886.44
2023-09-05T21:34:10.403Z,101878.78
2023-09-05T21:39:11.916Z,101880.06
2023-09-05T21:44:13.365Z,101889.44
2023-09-05T21:49:15.860Z,101874.91
2023-09-05T21:54:17.948Z,101872.53
2023-09-05T21:59:19.460Z,101875.56
2023-09-05T22:04:21.050Z,101884.53
2023-09-05T22:09:22.608Z,101883.84
2023-09-05T22:14:24.323Z,101879.56
2023-09-05T22:19:29.547Z,101875.44
2023-09-05T22:24:31.585Z,101872.47
2023-09-05T22:29:33.108Z,101874.31
2023-09-05T22:34:34.645Z,101878.53
2023-09-05T22:39:36.177Z,101873.88
2023-09-05T22:44:37.725Z,101868.94
2023-09-05T22:49:39.735Z,101888.03
2023-09-05T22:54:43.260Z,101876.84
2023-09-05T22:59:44.827Z,101885.38
2023-09-05T23:04:46.678Z,101884.38
2023-09-05T23:09:49.711Z,101877.16
2023-09-05T23:14:51.215Z,101881.66
2023-09-05T23:19:52.647Z,101884.22
2023-09-05T23:24:55.597Z,101882.72
2023-09-05T23:29:57.176Z,101876.09
2023-09-05T23:35:00.596Z,101866.91
2023-09-05T23:40:07.166Z,101873.75
2023-09-05T23:45:09.232Z,101878.50
2023-09-05T23:50:11.028Z,101879.78
2023-09-05T23:55:12.551Z,101868.69
